sensor_id;sensor_type;location;lat;lon;timestamp;P1;durP1;ratioP1;P2;durP2;ratioP2
41687;SDS011;27371;42.686;23.362;2024-03-02T00:02:16;30.42;;;20.80;;
41687;SDS011;27371;42.686;23.362;2024-03-02T00:04:44;31.70;;;20.42;;
41687;SDS011;27371;42.686;23.362;2024-03-02T00:07:10;34.97;;;20.25;;
41687;SDS011;27371;42.686;23.362;2024-03-02T00:09:39;29.27;;;20.42;;
41687;SDS011;27371;42.686;23.362;2024-03-02T00:12:05;29.65;;;20.00;;
41687;SDS011;27371;42.686;23.362;2024-03-02T00:14:31;30.77;;;19.85;;
41687;SDS011;27371;42.686;23.362;2024-03-02T00:16:57;29.00;;;20.02;;
41687;SDS011;27371;42.686;23.362;2024-03-02T00:19:22;29.83;;;20.20;;
41687;SDS011;27371;42.686;23.362;2024-03-02T00:21:48;29.58;;;20.27;;
41687;SDS011;27371;42.686;23.362;2024-03-02T00:24:18;29.75;;;20.52;;
41687;SDS011;27371;42.686;23.362;2024-03-02T00:27:06;29.08;;;19.73;;
41687;SDS011;27371;42.686;23.362;2024-03-02T00:29:32;29.75;;;20.15;;
41687;SDS011;27371;42.686;23.362;2024-03-02T00:31:59;31.90;;;20.98;;
41687;SDS011;27371;42.686;23.362;2024-03-02T00:34:26;32.33;;;20.77;;
41687;SDS011;27371;42.686;23.362;2024-03-02T00:36:52;27.48;;;19.38;;
41687;SDS011;27371;42.686;23.362;2024-03-02T00:39:17;28.58;;;18.65;;
41687;SDS011;27371;42.686;23.362;2024-03-02T00:41:43;31.10;;;20.50;;
41687;SDS011;27371;42.686;23.362;2024-03-02T00:44:11;28.02;;;18.88;;
41687;SDS011;27371;42.686;23.362;2024-03-02T00:51:36;31.67;;;20.60;;
41687;SDS011;27371;42.686;23.362;2024-03-02T00:54:03;27.20;;;19.13;;
41687;SDS011;27371;42.686;23.362;2024-03-02T00:56:31;26.40;;;18.73;;
41687;SDS011;27371;42.686;23.362;2024-03-02T00:58:58;31.50;;;18.60;;
41687;SDS011;27371;42.686;23.362;2024-03-02T01:01:32;26.88;;;19.17;;
41687;SDS011;27371;42.686;23.362;2024-03-02T01:03:58;31.15;;;19.67;;
41687;SDS011;27371;42.686;23.362;2024-03-02T01:06:23;28.73;;;18.65;;
41687;SDS011;27371;42.686;23.362;2024-03-02T01:08:49;24.80;;;18.40;;
41687;SDS011;27371;42.686;23.362;2024-03-02T01:11:16;26.80;;;19.10;;
41687;SDS011;27371;42.686;23.362;2024-03-02T01:13:43;26.23;;;18.02;;
41687;SDS011;27371;42.686;23.362;2024-03-02T01:16:08;24.50;;;18.60;;
41687;SDS011;27371;42.686;23.362;2024-03-02T01:18:34;27.10;;;18.55;;
41687;SDS011;27371;42.686;23.362;2024-03-02T01:21:00;29.73;;;19.58;;
41687;SDS011;27371;42.686;23.362;2024-03-02T01:23:26;25.05;;;17.55;;
41687;SDS011;27371;42.686;23.362;2024-03-02T01:25:52;27.83;;;18.90;;
41687;SDS011;27371;42.686;23.362;2024-03-02T01:28:18;28.65;;;17.48;;
41687;SDS011;27371;42.686;23.362;2024-03-02T01:30:45;25.48;;;17.02;;
41687;SDS011;27371;42.686;23.362;2024-03-02T01:33:11;26.35;;;18.02;;
41687;SDS011;27371;42.686;23.362;2024-03-02T01:35:36;31.65;;;19.38;;
41687;SDS011;27371;42.686;23.362;2024-03-02T01:38:03;30.60;;;19.98;;
41687;SDS011;27371;42.686;23.362;2024-03-02T01:40:30;32.63;;;20.88;;
41687;SDS011;27371;42.686;23.362;2024-03-02T01:42:56;32.05;;;21.70;;
41687;SDS011;27371;42.686;23.362;2024-03-02T01:45:24;31.70;;;21.05;;
41687;SDS011;27371;42.686;23.362;2024-03-02T01:47:50;32.30;;;21.80;;
41687;SDS011;27371;42.686;23.362;2024-03-02T01:50:15;32.58;;;21.98;;
41687;SDS011;27371;42.686;23.362;2024-03-02T01:52:49;30.60;;;20.80;;
41687;SDS011;27371;42.686;23.362;2024-03-02T01:55:14;31.83;;;21.95;;
41687;SDS011;27371;42.686;23.362;2024-03-02T01:57:40;28.52;;;21.58;;
41687;SDS011;27371;42.686;23.362;2024-03-02T02:00:06;31.20;;;21.10;;
41687;SDS011;27371;42.686;23.362;2024-03-02T02:02:32;31.90;;;21.48;;
41687;SDS011;27371;42.686;23.362;2024-03-02T02:04:58;30.48;;;20.40;;
41687;SDS011;27371;42.686;23.362;2024-03-02T02:07:23;30.40;;;22.02;;
41687;SDS011;27371;42.686;23.362;2024-03-02T02:09:49;30.98;;;20.50;;
41687;SDS011;27371;42.686;23.362;2024-03-02T02:12:14;34.15;;;21.70;;
41687;SDS011;27371;42.686;23.362;2024-03-02T02:14:46;32.53;;;21.98;;
41687;SDS011;27371;42.686;23.362;2024-03-02T02:17:13;31.42;;;21.73;;
41687;SDS011;27371;42.686;23.362;2024-03-02T02:19:40;35.28;;;21.30;;
41687;SDS011;27371;42.686;23.362;2024-03-02T02:22:06;31.48;;;20.77;;
41687;SDS011;27371;42.686;23.362;2024-03-02T02:24:31;32.15;;;22.02;;
41687;SDS011;27371;42.686;23.362;2024-03-02T02:26:57;36.92;;;22.70;;
41687;SDS011;27371;42.686;23.362;2024-03-02T02:29:22;31.58;;;22.17;;
41687;SDS011;27371;42.686;23.362;2024-03-02T02:31:48;32.90;;;23.08;;
41687;SDS011;27371;42.686;23.362;2024-03-02T02:34:14;33.60;;;22.33;;
41687;SDS011;27371;42.686;23.362;2024-03-02T02:36:40;37.53;;;24.02;;
41687;SDS011;27371;42.686;23.362;2024-03-02T02:39:07;34.33;;;24.15;;
41687;SDS011;27371;42.686;23.362;2024-03-02T02:41:38;35.15;;;24.30;;
41687;SDS011;27371;42.686;23.362;2024-03-02T02:44:04;33.03;;;23.08;;
41687;SDS011;27371;42.686;23.362;2024-03-02T02:46:30;37.90;;;24.38;;
41687;SDS011;27371;42.686;23.362;2024-03-02T02:48:55;35.60;;;23.83;;
41687;SDS011;27371;42.686;23.362;2024-03-02T02:51:21;34.72;;;24.23;;
41687;SDS011;27371;42.686;23.362;2024-03-02T02:53:46;36.72;;;24.10;;
41687;SDS011;27371;42.686;23.362;2024-03-02T02:56:12;33.00;;;24.27;;
41687;SDS011;27371;42.686;23.362;2024-03-02T02:58:38;36.75;;;24.85;;
41687;SDS011;27371;42.686;23.362;2024-03-02T03:01:06;35.20;;;23.40;;
41687;SDS011;27371;42.686;23.362;2024-03-02T03:03:32;34.33;;;23.67;;
41687;SDS011;27371;42.686;23.362;2024-03-02T03:05:58;38.30;;;23.45;;
41687;SDS011;27371;42.686;23.362;2024-03-02T03:08:23;34.88;;;23.27;;
41687;SDS011;27371;42.686;23.362;2024-03-02T03:10:49;36.20;;;22.40;;
41687;SDS011;27371;42.686;23.362;2024-03-02T03:13:15;33.15;;;22.00;;
41687;SDS011;27371;42.686;23.362;2024-03-02T03:15:41;36.63;;;22.67;;
41687;SDS011;27371;42.686;23.362;2024-03-02T03:18:06;35.08;;;22.80;;
41687;SDS011;27371;42.686;23.362;2024-03-02T03:20:35;36.13;;;22.35;;
41687;SDS011;27371;42.686;23.362;2024-03-02T03:23:01;34.78;;;22.92;;
41687;SDS011;27371;42.686;23.362;2024-03-02T03:25:29;39.28;;;22.63;;
41687;SDS011;27371;42.686;23.362;2024-03-02T03:27:54;38.72;;;23.38;;
41687;SDS011;27371;42.686;23.362;2024-03-02T03:30:20;39.97;;;24.48;;
41687;SDS011;27371;42.686;23.362;2024-03-02T03:32:46;35.60;;;23.95;;
41687;SDS011;27371;42.686;23.362;2024-03-02T03:35:13;34.85;;;23.50;;
41687;SDS011;27371;42.686;23.362;2024-03-02T03:37:40;36.05;;;23.67;;
41687;SDS011;27371;42.686;23.362;2024-03-02T03:40:05;36.72;;;24.20;;
41687;SDS011;27371;42.686;23.362;2024-03-02T03:42:37;37.38;;;23.58;;
41687;SDS011;27371;42.686;23.362;2024-03-02T03:45:03;36.80;;;24.05;;
41687;SDS011;27371;42.686;23.362;2024-03-02T03:47:30;34.38;;;23.02;;
41687;SDS011;27371;42.686;23.362;2024-03-02T03:49:56;39.22;;;24.40;;
41687;SDS011;27371;42.686;23.362;2024-03-02T03:52:23;32.85;;;23.08;;
41687;SDS011;27371;42.686;23.362;2024-03-02T03:54:48;35.40;;;24.02;;
41687;SDS011;27371;42.686;23.362;2024-03-02T03:57:14;39.03;;;24.20;;
41687;SDS011;27371;42.686;23.362;2024-03-02T03:59:40;33.15;;;21.52;;
41687;SDS011;27371;42.686;23.362;2024-03-02T04:02:05;32.50;;;20.35;;
41687;SDS011;27371;42.686;23.362;2024-03-02T04:04:32;31.25;;;21.33;;
41687;SDS011;27371;42.686;23.362;2024-03-02T04:06:58;32.53;;;21.23;;
41687;SDS011;27371;42.686;23.362;2024-03-02T04:09:24;33.63;;;21.25;;
41687;SDS011;27371;42.686;23.362;2024-03-02T04:11:50;34.08;;;23.33;;
41687;SDS011;27371;42.686;23.362;2024-03-02T04:14:16;39.85;;;23.33;;
41687;SDS011;27371;42.686;23.362;2024-03-02T04:16:42;39.20;;;23.65;;
41687;SDS011;27371;42.686;23.362;2024-03-02T04:19:07;35.40;;;23.27;;
41687;SDS011;27371;42.686;23.362;2024-03-02T04:21:33;38.10;;;23.90;;
41687;SDS011;27371;42.686;23.362;2024-03-02T04:23:58;39.38;;;24.60;;
41687;SDS011;27371;42.686;23.362;2024-03-02T04:26:27;35.80;;;23.45;;
41687;SDS011;27371;42.686;23.362;2024-03-02T04:28:52;38.58;;;23.75;;
41687;SDS011;27371;42.686;23.362;2024-03-02T04:31:19;41.50;;;22.27;;
41687;SDS011;27371;42.686;23.362;2024-03-02T04:33:44;39.28;;;23.27;;
41687;SDS011;27371;42.686;23.362;2024-03-02T04:36:10;35.10;;;22.45;;
41687;SDS011;27371;42.686;23.362;2024-03-02T04:38:36;34.78;;;22.33;;
41687;SDS011;27371;42.686;23.362;2024-03-02T04:41:03;36.55;;;23.15;;
41687;SDS011;27371;42.686;23.362;2024-03-02T04:43:31;38.83;;;22.92;;
41687;SDS011;27371;42.686;23.362;2024-03-02T04:45:57;36.08;;;22.60;;
41687;SDS011;27371;42.686;23.362;2024-03-02T04:48:23;35.80;;;23.17;;
41687;SDS011;27371;42.686;23.362;2024-03-02T04:50:49;34.63;;;23.17;;
41687;SDS011;27371;42.686;23.362;2024-03-02T04:53:15;35.95;;;21.92;;
41687;SDS011;27371;42.686;23.362;2024-03-02T04:55:40;36.15;;;22.23;;
41687;SDS011;27371;42.686;23.362;2024-03-02T04:58:06;35.15;;;22.30;;
41687;SDS011;27371;42.686;23.362;2024-03-02T05:00:32;34.20;;;22.17;;
41687;SDS011;27371;42.686;23.362;2024-03-02T05:02:58;35.20;;;21.60;;
41687;SDS011;27371;42.686;23.362;2024-03-02T05:05:23;37.20;;;22.60;;
41687;SDS011;27371;42.686;23.362;2024-03-02T05:07:49;32.90;;;21.95;;
41687;SDS011;27371;42.686;23.362;2024-03-02T05:10:14;35.97;;;22.88;;
41687;SDS011;27371;42.686;23.362;2024-03-02T05:12:40;39.28;;;22.83;;
41687;SDS011;27371;42.686;23.362;2024-03-02T05:15:09;34.90;;;23.25;;
41687;SDS011;27371;42.686;23.362;2024-03-02T05:17:36;38.50;;;23.30;;
41687;SDS011;27371;42.686;23.362;2024-03-02T05:20:03;38.40;;;23.70;;
41687;SDS011;27371;42.686;23.362;2024-03-02T05:22:29;38.53;;;24.48;;
41687;SDS011;27371;42.686;23.362;2024-03-02T05:24:54;38.03;;;22.77;;
41687;SDS011;27371;42.686;23.362;2024-03-02T05:27:20;39.88;;;24.13;;
41687;SDS011;27371;42.686;23.362;2024-03-02T05:29:46;39.72;;;23.33;;
41687;SDS011;27371;42.686;23.362;2024-03-02T05:32:12;38.60;;;24.30;;
41687;SDS011;27371;42.686;23.362;2024-03-02T05:34:37;38.30;;;22.85;;
41687;SDS011;27371;42.686;23.362;2024-03-02T05:37:03;37.53;;;23.67;;
41687;SDS011;27371;42.686;23.362;2024-03-02T05:39:29;36.70;;;23.10;;
41687;SDS011;27371;42.686;23.362;2024-03-02T05:41:54;36.63;;;22.23;;
41687;SDS011;27371;42.686;23.362;2024-03-02T05:44:20;37.13;;;23.10;;
41687;SDS011;27371;42.686;23.362;2024-03-02T05:46:45;35.03;;;22.10;;
41687;SDS011;27371;42.686;23.362;2024-03-02T05:49:11;34.53;;;20.63;;
41687;SDS011;27371;42.686;23.362;2024-03-02T05:51:37;34.67;;;21.02;;
41687;SDS011;27371;42.686;23.362;2024-03-02T05:54:02;37.42;;;22.05;;
41687;SDS011;27371;42.686;23.362;2024-03-02T05:56:28;41.00;;;24.58;;
41687;SDS011;27371;42.686;23.362;2024-03-02T05:58:54;37.85;;;24.00;;
41687;SDS011;27371;42.686;23.362;2024-03-02T06:01:44;41.42;;;25.05;;
41687;SDS011;27371;42.686;23.362;2024-03-02T06:04:12;44.33;;;26.02;;
41687;SDS011;27371;42.686;23.362;2024-03-02T06:06:38;47.80;;;27.45;;
41687;SDS011;27371;42.686;23.362;2024-03-02T06:09:04;49.75;;;27.50;;
41687;SDS011;27371;42.686;23.362;2024-03-02T06:11:33;45.03;;;26.02;;
41687;SDS011;27371;42.686;23.362;2024-03-02T06:13:59;52.75;;;28.23;;
41687;SDS011;27371;42.686;23.362;2024-03-02T06:16:24;48.67;;;26.95;;
41687;SDS011;27371;42.686;23.362;2024-03-02T06:18:50;50.78;;;28.00;;
41687;SDS011;27371;42.686;23.362;2024-03-02T06:21:16;46.60;;;25.73;;
41687;SDS011;27371;42.686;23.362;2024-03-02T06:23:43;48.97;;;26.52;;
41687;SDS011;27371;42.686;23.362;2024-03-02T06:26:09;47.92;;;28.10;;
41687;SDS011;27371;42.686;23.362;2024-03-02T06:28:34;48.13;;;26.75;;
41687;SDS011;27371;42.686;23.362;2024-03-02T06:31:00;53.47;;;28.35;;
41687;SDS011;27371;42.686;23.362;2024-03-02T06:33:27;48.55;;;27.73;;
41687;SDS011;27371;42.686;23.362;2024-03-02T06:35:52;46.10;;;25.40;;
41687;SDS011;27371;42.686;23.362;2024-03-02T06:38:18;48.15;;;25.33;;
41687;SDS011;27371;42.686;23.362;2024-03-02T06:40:43;43.72;;;25.23;;
41687;SDS011;27371;42.686;23.362;2024-03-02T06:43:09;46.78;;;25.40;;
41687;SDS011;27371;42.686;23.362;2024-03-02T06:45:34;44.90;;;25.23;;
41687;SDS011;27371;42.686;23.362;2024-03-02T06:48:00;52.13;;;27.38;;
41687;SDS011;27371;42.686;23.362;2024-03-02T06:50:26;48.58;;;28.15;;
41687;SDS011;27371;42.686;23.362;2024-03-02T06:52:51;56.08;;;29.52;;
41687;SDS011;27371;42.686;23.362;2024-03-02T06:55:17;52.33;;;28.73;;
41687;SDS011;27371;42.686;23.362;2024-03-02T06:57:43;54.78;;;28.50;;
41687;SDS011;27371;42.686;23.362;2024-03-02T07:00:08;58.88;;;29.67;;
41687;SDS011;27371;42.686;23.362;2024-03-02T07:02:35;53.90;;;29.63;;
41687;SDS011;27371;42.686;23.362;2024-03-02T07:05:01;53.70;;;28.85;;
41687;SDS011;27371;42.686;23.362;2024-03-02T07:07:27;56.70;;;28.05;;
41687;SDS011;27371;42.686;23.362;2024-03-02T07:09:53;50.45;;;27.23;;
41687;SDS011;27371;42.686;23.362;2024-03-02T07:12:18;54.13;;;28.95;;
41687;SDS011;27371;42.686;23.362;2024-03-02T07:14:44;49.65;;;26.38;;
41687;SDS011;27371;42.686;23.362;2024-03-02T07:17:27;48.33;;;27.58;;
41687;SDS011;27371;42.686;23.362;2024-03-02T07:19:54;48.53;;;27.08;;
41687;SDS011;27371;42.686;23.362;2024-03-02T07:22:19;49.00;;;26.60;;
41687;SDS011;27371;42.686;23.362;2024-03-02T07:24:45;46.28;;;26.95;;
41687;SDS011;27371;42.686;23.362;2024-03-02T07:27:11;45.72;;;25.90;;
41687;SDS011;27371;42.686;23.362;2024-03-02T07:29:38;51.83;;;30.65;;
41687;SDS011;27371;42.686;23.362;2024-03-02T07:32:04;62.50;;;35.70;;
41687;SDS011;27371;42.686;23.362;2024-03-02T07:34:30;75.00;;;42.97;;
41687;SDS011;27371;42.686;23.362;2024-03-02T07:36:56;59.88;;;33.42;;
41687;SDS011;27371;42.686;23.362;2024-03-02T07:39:22;61.60;;;35.83;;
41687;SDS011;27371;42.686;23.362;2024-03-02T07:41:48;72.05;;;39.88;;
41687;SDS011;27371;42.686;23.362;2024-03-02T07:44:13;65.80;;;38.25;;
41687;SDS011;27371;42.686;23.362;2024-03-02T07:46:43;52.10;;;29.25;;
41687;SDS011;27371;42.686;23.362;2024-03-02T07:49:08;53.08;;;27.30;;
41687;SDS011;27371;42.686;23.362;2024-03-02T07:51:34;46.75;;;25.75;;
41687;SDS011;27371;42.686;23.362;2024-03-02T07:54:01;41.65;;;25.77;;
41687;SDS011;27371;42.686;23.362;2024-03-02T07:56:27;43.85;;;26.48;;
41687;SDS011;27371;42.686;23.362;2024-03-02T07:58:52;49.50;;;25.83;;
41687;SDS011;27371;42.686;23.362;2024-03-02T08:01:18;48.53;;;25.65;;
41687;SDS011;27371;42.686;23.362;2024-03-02T08:03:44;51.45;;;27.58;;
41687;SDS011;27371;42.686;23.362;2024-03-02T08:06:15;53.42;;;28.40;;
41687;SDS011;27371;42.686;23.362;2024-03-02T08:08:46;59.28;;;27.95;;
41687;SDS011;27371;42.686;23.362;2024-03-02T08:11:12;53.80;;;29.00;;
41687;SDS011;27371;42.686;23.362;2024-03-02T08:13:37;60.65;;;31.65;;
41687;SDS011;27371;42.686;23.362;2024-03-02T08:16:03;59.35;;;29.42;;
41687;SDS011;27371;42.686;23.362;2024-03-02T08:18:32;58.55;;;31.30;;
41687;SDS011;27371;42.686;23.362;2024-03-02T08:20:57;56.17;;;31.88;;
41687;SDS011;27371;42.686;23.362;2024-03-02T08:23:23;56.40;;;33.08;;
41687;SDS011;27371;42.686;23.362;2024-03-02T08:25:49;59.78;;;32.60;;
41687;SDS011;27371;42.686;23.362;2024-03-02T08:28:14;60.50;;;33.22;;
41687;SDS011;27371;42.686;23.362;2024-03-02T08:30:40;64.55;;;34.28;;
41687;SDS011;27371;42.686;23.362;2024-03-02T08:33:05;58.72;;;33.17;;
41687;SDS011;27371;42.686;23.362;2024-03-02T08:35:31;63.38;;;37.75;;
41687;SDS011;27371;42.686;23.362;2024-03-02T08:38:01;71.72;;;42.03;;
41687;SDS011;27371;42.686;23.362;2024-03-02T08:40:28;82.32;;;47.83;;
41687;SDS011;27371;42.686;23.362;2024-03-02T08:42:53;89.22;;;55.00;;
41687;SDS011;27371;42.686;23.362;2024-03-02T08:45:19;94.35;;;57.63;;
41687;SDS011;27371;42.686;23.362;2024-03-02T08:47:45;91.38;;;59.28;;
41687;SDS011;27371;42.686;23.362;2024-03-02T08:50:11;80.43;;;51.60;;
41687;SDS011;27371;42.686;23.362;2024-03-02T08:52:37;77.80;;;45.85;;
41687;SDS011;27371;42.686;23.362;2024-03-02T08:55:03;72.93;;;46.17;;
41687;SDS011;27371;42.686;23.362;2024-03-02T08:57:28;59.03;;;35.22;;
41687;SDS011;27371;42.686;23.362;2024-03-02T08:59:54;47.22;;;30.10;;
41687;SDS011;27371;42.686;23.362;2024-03-02T09:02:20;53.83;;;31.08;;
41687;SDS011;27371;42.686;23.362;2024-03-02T09:04:45;51.30;;;31.60;;
41687;SDS011;27371;42.686;23.362;2024-03-02T09:07:11;48.47;;;30.50;;
41687;SDS011;27371;42.686;23.362;2024-03-02T09:09:36;54.10;;;29.98;;
41687;SDS011;27371;42.686;23.362;2024-03-02T09:12:04;47.30;;;28.55;;
41687;SDS011;27371;42.686;23.362;2024-03-02T09:14:30;44.42;;;26.63;;
41687;SDS011;27371;42.686;23.362;2024-03-02T09:16:56;45.83;;;26.92;;
41687;SDS011;27371;42.686;23.362;2024-03-02T09:19:21;41.60;;;25.35;;
41687;SDS011;27371;42.686;23.362;2024-03-02T09:21:47;43.33;;;24.92;;
41687;SDS011;27371;42.686;23.362;2024-03-02T09:24:13;43.47;;;25.10;;
41687;SDS011;27371;42.686;23.362;2024-03-02T09:26:38;42.28;;;24.27;;
41687;SDS011;27371;42.686;23.362;2024-03-02T09:29:04;40.10;;;24.45;;
41687;SDS011;27371;42.686;23.362;2024-03-02T09:31:29;38.58;;;21.42;;
41687;SDS011;27371;42.686;23.362;2024-03-02T09:33:55;40.60;;;22.98;;
41687;SDS011;27371;42.686;23.362;2024-03-02T09:36:21;35.45;;;20.38;;
41687;SDS011;27371;42.686;23.362;2024-03-02T09:38:48;38.08;;;21.85;;
41687;SDS011;27371;42.686;23.362;2024-03-02T09:41:16;37.80;;;24.00;;
41687;SDS011;27371;42.686;23.362;2024-03-02T09:43:42;37.60;;;22.90;;
41687;SDS011;27371;42.686;23.362;2024-03-02T09:46:10;41.25;;;24.10;;
41687;SDS011;27371;42.686;23.362;2024-03-02T09:48:36;40.22;;;24.83;;
41687;SDS011;27371;42.686;23.362;2024-03-02T09:51:02;44.75;;;27.48;;
41687;SDS011;27371;42.686;23.362;2024-03-02T09:53:31;43.83;;;25.13;;
41687;SDS011;27371;42.686;23.362;2024-03-02T09:55:59;46.40;;;25.83;;
41687;SDS011;27371;42.686;23.362;2024-03-02T09:58:25;40.65;;;24.83;;
41687;SDS011;27371;42.686;23.362;2024-03-02T10:00:50;41.63;;;23.65;;
41687;SDS011;27371;42.686;23.362;2024-03-02T10:03:16;40.78;;;24.70;;
41687;SDS011;27371;42.686;23.362;2024-03-02T10:05:44;42.28;;;25.48;;
41687;SDS011;27371;42.686;23.362;2024-03-02T10:08:09;39.20;;;25.88;;
41687;SDS011;27371;42.686;23.362;2024-03-02T10:10:35;39.83;;;23.60;;
41687;SDS011;27371;42.686;23.362;2024-03-02T10:13:08;36.35;;;23.85;;
41687;SDS011;27371;42.686;23.362;2024-03-02T10:15:35;36.78;;;22.98;;
41687;SDS011;27371;42.686;23.362;2024-03-02T10:18:03;38.42;;;21.67;;
41687;SDS011;27371;42.686;23.362;2024-03-02T10:20:29;34.45;;;23.23;;
41687;SDS011;27371;42.686;23.362;2024-03-02T10:23:13;39.33;;;23.27;;
41687;SDS011;27371;42.686;23.362;2024-03-02T10:28:06;36.08;;;21.92;;
41687;SDS011;27371;42.686;23.362;2024-03-02T10:30:32;38.97;;;23.17;;
41687;SDS011;27371;42.686;23.362;2024-03-02T10:33:01;34.70;;;21.95;;
41687;SDS011;27371;42.686;23.362;2024-03-02T10:35:27;36.03;;;21.08;;
41687;SDS011;27371;42.686;23.362;2024-03-02T10:37:53;33.38;;;21.10;;
41687;SDS011;27371;42.686;23.362;2024-03-02T10:40:22;32.92;;;19.83;;
41687;SDS011;27371;42.686;23.362;2024-03-02T10:42:51;30.55;;;19.88;;
41687;SDS011;27371;42.686;23.362;2024-03-02T10:45:17;33.35;;;19.88;;
41687;SDS011;27371;42.686;23.362;2024-03-02T10:47:45;34.50;;;20.25;;
41687;SDS011;27371;42.686;23.362;2024-03-02T10:50:12;33.33;;;20.30;;
41687;SDS011;27371;42.686;23.362;2024-03-02T10:52:38;31.35;;;17.73;;
41687;SDS011;27371;42.686;23.362;2024-03-02T10:55:04;31.77;;;19.48;;
41687;SDS011;27371;42.686;23.362;2024-03-02T10:57:41;33.85;;;22.05;;
41687;SDS011;27371;42.686;23.362;2024-03-02T11:00:11;29.17;;;18.83;;
41687;SDS011;27371;42.686;23.362;2024-03-02T11:02:41;30.80;;;20.00;;
41687;SDS011;27371;42.686;23.362;2024-03-02T11:05:13;33.70;;;19.80;;
41687;SDS011;27371;42.686;23.362;2024-03-02T11:07:48;34.72;;;20.38;;
41687;SDS011;27371;42.686;23.362;2024-03-02T11:10:14;31.65;;;20.10;;
41687;SDS011;27371;42.686;23.362;2024-03-02T11:12:53;30.65;;;19.00;;
41687;SDS011;27371;42.686;23.362;2024-03-02T11:15:24;29.08;;;17.27;;
41687;SDS011;27371;42.686;23.362;2024-03-02T11:17:51;27.92;;;17.30;;
41687;SDS011;27371;42.686;23.362;2024-03-02T11:20:18;29.65;;;17.50;;
41687;SDS011;27371;42.686;23.362;2024-03-02T11:22:45;29.65;;;18.55;;
41687;SDS011;27371;42.686;23.362;2024-03-02T11:25:25;32.20;;;19.90;;
41687;SDS011;27371;42.686;23.362;2024-03-02T11:33:07;33.45;;;19.90;;
41687;SDS011;27371;42.686;23.362;2024-03-02T11:35:33;38.40;;;22.17;;
41687;SDS011;27371;42.686;23.362;2024-03-02T11:38:03;31.60;;;19.73;;
41687;SDS011;27371;42.686;23.362;2024-03-02T11:40:29;36.25;;;20.85;;
41687;SDS011;27371;42.686;23.362;2024-03-02T11:42:59;33.17;;;20.83;;
41687;SDS011;27371;42.686;23.362;2024-03-02T11:45:28;30.75;;;18.73;;
41687;SDS011;27371;42.686;23.362;2024-03-02T11:47:56;30.90;;;19.77;;
41687;SDS011;27371;42.686;23.362;2024-03-02T11:53:17;37.95;;;21.20;;
41687;SDS011;27371;42.686;23.362;2024-03-02T11:55:43;30.08;;;19.75;;
41687;SDS011;27371;42.686;23.362;2024-03-02T11:58:11;29.02;;;18.95;;
41687;SDS011;27371;42.686;23.362;2024-03-02T12:00:38;24.38;;;16.48;;
41687;SDS011;27371;42.686;23.362;2024-03-02T12:03:07;25.13;;;16.80;;
41687;SDS011;27371;42.686;23.362;2024-03-02T12:05:33;27.13;;;19.35;;
41687;SDS011;27371;42.686;23.362;2024-03-02T12:08:01;27.10;;;16.80;;
41687;SDS011;27371;42.686;23.362;2024-03-02T12:10:27;24.27;;;16.10;;
41687;SDS011;27371;42.686;23.362;2024-03-02T12:13:00;27.13;;;18.13;;
41687;SDS011;27371;42.686;23.362;2024-03-02T12:15:28;20.33;;;14.13;;
41687;SDS011;27371;42.686;23.362;2024-03-02T12:17:55;25.83;;;17.88;;
41687;SDS011;27371;42.686;23.362;2024-03-02T12:20:22;22.98;;;16.05;;
41687;SDS011;27371;42.686;23.362;2024-03-02T12:22:52;23.75;;;16.75;;
41687;SDS011;27371;42.686;23.362;2024-03-02T12:25:22;27.40;;;18.42;;
41687;SDS011;27371;42.686;23.362;2024-03-02T12:27:49;25.63;;;18.90;;
41687;SDS011;27371;42.686;23.362;2024-03-02T12:30:16;25.25;;;16.77;;
41687;SDS011;27371;42.686;23.362;2024-03-02T12:32:43;23.15;;;16.23;;
41687;SDS011;27371;42.686;23.362;2024-03-02T12:35:10;25.73;;;17.67;;
41687;SDS011;27371;42.686;23.362;2024-03-02T12:37:46;24.55;;;16.92;;
41687;SDS011;27371;42.686;23.362;2024-03-02T12:40:13;23.83;;;15.77;;
41687;SDS011;27371;42.686;23.362;2024-03-02T12:42:40;23.08;;;15.45;;
41687;SDS011;27371;42.686;23.362;2024-03-02T12:45:07;20.67;;;14.35;;
41687;SDS011;27371;42.686;23.362;2024-03-02T12:47:33;18.63;;;13.95;;
41687;SDS011;27371;42.686;23.362;2024-03-02T12:50:00;16.95;;;12.80;;
41687;SDS011;27371;42.686;23.362;2024-03-02T12:52:26;18.58;;;13.60;;
41687;SDS011;27371;42.686;23.362;2024-03-02T12:54:52;18.90;;;13.63;;
41687;SDS011;27371;42.686;23.362;2024-03-02T12:57:24;19.17;;;14.45;;
41687;SDS011;27371;42.686;23.362;2024-03-02T12:59:51;16.48;;;12.10;;
41687;SDS011;27371;42.686;23.362;2024-03-02T13:02:17;16.23;;;11.73;;
41687;SDS011;27371;42.686;23.362;2024-03-02T13:04:43;15.82;;;11.90;;
41687;SDS011;27371;42.686;23.362;2024-03-02T13:07:09;18.35;;;12.63;;
41687;SDS011;27371;42.686;23.362;2024-03-02T13:09:38;18.20;;;13.63;;
41687;SDS011;27371;42.686;23.362;2024-03-02T13:12:04;18.00;;;13.38;;
41687;SDS011;27371;42.686;23.362;2024-03-02T13:14:34;19.00;;;13.90;;
41687;SDS011;27371;42.686;23.362;2024-03-02T13:17:01;22.05;;;15.10;;
41687;SDS011;27371;42.686;23.362;2024-03-02T13:19:29;22.83;;;16.20;;
41687;SDS011;27371;42.686;23.362;2024-03-02T13:21:56;18.83;;;14.02;;
41687;SDS011;27371;42.686;23.362;2024-03-02T13:24:22;19.65;;;13.60;;
41687;SDS011;27371;42.686;23.362;2024-03-02T13:26:50;20.15;;;13.38;;
41687;SDS011;27371;42.686;23.362;2024-03-02T13:29:20;20.70;;;13.93;;
41687;SDS011;27371;42.686;23.362;2024-03-02T13:31:46;19.40;;;13.85;;
41687;SDS011;27371;42.686;23.362;2024-03-02T13:34:12;17.02;;;12.90;;
41687;SDS011;27371;42.686;23.362;2024-03-02T13:36:37;17.65;;;12.98;;
41687;SDS011;27371;42.686;23.362;2024-03-02T13:39:04;17.52;;;12.93;;
41687;SDS011;27371;42.686;23.362;2024-03-02T13:41:35;16.92;;;12.73;;
41687;SDS011;27371;42.686;23.362;2024-03-02T13:44:01;19.80;;;14.82;;
41687;SDS011;27371;42.686;23.362;2024-03-02T13:46:27;16.88;;;12.95;;
41687;SDS011;27371;42.686;23.362;2024-03-02T13:48:52;17.98;;;12.77;;
41687;SDS011;27371;42.686;23.362;2024-03-02T13:51:18;17.38;;;13.30;;
41687;SDS011;27371;42.686;23.362;2024-03-02T13:53:44;18.58;;;12.48;;
41687;SDS011;27371;42.686;23.362;2024-03-02T13:56:10;18.02;;;12.75;;
41687;SDS011;27371;42.686;23.362;2024-03-02T13:58:36;17.77;;;12.05;;
41687;SDS011;27371;42.686;23.362;2024-03-02T14:01:02;20.48;;;12.30;;
41687;SDS011;27371;42.686;23.362;2024-03-02T14:03:29;20.58;;;14.35;;
41687;SDS011;27371;42.686;23.362;2024-03-02T14:05:56;23.73;;;15.40;;
41687;SDS011;27371;42.686;23.362;2024-03-02T14:08:22;21.33;;;14.80;;
41687;SDS011;27371;42.686;23.362;2024-03-02T14:10:48;22.67;;;14.10;;
41687;SDS011;27371;42.686;23.362;2024-03-02T14:13:14;19.77;;;14.50;;
41687;SDS011;27371;42.686;23.362;2024-03-02T14:15:41;21.00;;;15.30;;
41687;SDS011;27371;42.686;23.362;2024-03-02T14:18:07;20.77;;;13.77;;
41687;SDS011;27371;42.686;23.362;2024-03-02T14:20:35;20.20;;;13.68;;
41687;SDS011;27371;42.686;23.362;2024-03-02T14:23:00;22.60;;;16.08;;